Terminal Aerodrome Forecast
Issued by NWS St Louis, MO

Home | Current Version | Previous Version | Graphics & Text | Print | Product List | Glossary On
Versions: 1 2 3 4 5 6 7 8 9 10 11 12 13 14 15 16 17 18 19 20 21 22
000
FTUS43 KLSX 221100
TAFSTL
TAF
KSTL 221134Z 2212/2318 33005KT P6SM OVC016
     FM221800 35005KT P6SM BKN025
     FM230800 VRB03KT 4SM BR SCT010
     FM231500 29003KT P6SM BKN250=

USA.gov is the U.S. government's official web portal to all federal, state and local government web resources and services.